Lehmann Sound — V2EM3 — position and weather

sailwx.info

Track history (hours):
 
Tides and Currents Weather Stations Pressure Air Temp Water Temp Dewpoint Dewpoint Depression Visibility Wind Speed Wind Dir Waves Ship Positions

Lehmann Sound

Last reported at 2014-Dec-20 05:33 UTC. Time now 2014-Dec-20 05:53 UTC.
Position N 50°36' E 000°33'.

Length 90 m; draft 4.7 m.

Type: Cargo ship. MMSI: 305476000.

Date/timePositionNaut miles runAvg speedWind from/ knotsBaromVisibWave heightAir tempDewpointWater temp
2014-Dec-20 05:33N 50°36' E 000°33'9 8.9
2014-Dec-20 04:33N 50°41' E 000°44'1010.2
2014-Dec-20 03:33N 50°48' E 000°56'1110.6
2014-Dec-20 02:32N 50°55' E 001°09'1010.1
2014-Dec-20 01:33N 51°01' E 001°22'9 9.2
2014-Dec-20 00:33N 51°07' E 001°32'8 8.1
2014-Dec-19 23:33N 51°13' E 001°42'8 8.0
2014-Dec-19 22:33N 51°19' E 001°50'9 8.6
2014-Dec-19 21:34N 51°26' E 001°58'10 9.6
2014-Dec-19 20:32N 51°33' E 002°08'1010.3
2014-Dec-19 19:33N 51°41' E 002°20'93 8.3
2014-Dec-19 08:17N 52°54' E 003°54'6 8.4
2014-Dec-19 07:33N 52°58' E 004°02'8 8.3
2014-Dec-19 06:33N 53°03' E 004°12'19 6.1
2014-Dec-19 03:25N 53°19' E 004°31'5 5.5
2014-Dec-19 02:33N 53°23' E 004°34'5 5.3
2014-Dec-19 01:33N 53°28' E 004°38'5 4.8
2014-Dec-19 00:33N 53°29' E 004°46'5 5.0
2014-Dec-18 23:33N 53°31' E 004°53'6 5.8
2014-Dec-18 22:33N 53°33' E 005°02'7 6.9
2014-Dec-18 21:33N 53°36' E 005°13'7 7.0
2014-Dec-18 20:33N 53°38' E 005°24'7 6.6
2014-Dec-18 19:33N 53°40' E 005°35'7 7.0
2014-Dec-18 18:33N 53°43' E 005°46'7 7.0
2014-Dec-18 17:33N 53°45' E 005°57'56 8.7
2014-Dec-18 11:10N 53°60' E 007°28'710.3
2014-Dec-18 10:32N 54°01' E 007°39'1010.3
2014-Dec-18 09:33N 54°01' E 007°56'1010.3
2014-Dec-18 08:33N 54°00' E 008°14'10 9.9
2014-Dec-18 07:33N 53°59' E 008°30'8 8.3
2014-Dec-18 06:33N 53°54' E 008°42'8 8.0
2014-Dec-18 05:33N 53°51' E 008°54'9 9.1
2014-Dec-18 04:33N 53°54' E 009°09'2 2.1
2014-Dec-18 03:33N 53°55' E 009°11'8 8.4
2014-Dec-18 02:33N 54°03' E 009°18'9 8.0
2014-Dec-18 01:28N 54°10' E 009°26'8 8.4
2014-Dec-18 00:33N 54°14' E 009°37'8 7.8
2014-Dec-17 23:33N 54°20' E 009°45'8 7.9
2014-Dec-17 22:33N 54°21' E 009°58'5 5.3
2014-Dec-17 21:31N 54°22' E 010°08'0 0.0
2014-Dec-17 20:31N 54°22' E 010°08'0 0.0
2014-Dec-17 19:31N 54°22' E 010°08'0 0.2
2014-Dec-17 18:33N 54°22' E 010°08'1 1.5
2014-Dec-17 17:33N 54°22' E 010°10'7 6.9
2014-Dec-17 16:33N 54°29' E 010°16'9 9.1
2014-Dec-17 15:33N 54°33' E 010°29'38 8.7
2014-Dec-17 11:15N 54°29' E 011°34'7 9.6
2014-Dec-17 10:31N 54°26' E 011°45'10 9.4
2014-Dec-17 09:29N 54°26' E 012°01'8 8.1
2014-Dec-17 08:33N 54°30' E 012°12'65 5.9
2014-Dec-16 21:32N 54°19' E 014°03'9 9.4
2014-Dec-16 20:33N 54°12' E 014°12'1110.6
2014-Dec-16 19:33N 54°02' E 014°16'7 7.1
2014-Dec-16 18:33N 53°55' E 014°17'7 6.6
2014-Dec-16 17:33N 53°48' E 014°20'10 9.7
2014-Dec-16 16:33N 53°41' E 014°30'9 8.7
2014-Dec-16 15:33N 53°33' E 014°37'7 7.3
2014-Dec-16 14:33N 53°26' E 014°35'0 0.2
2014-Dec-16 13:33N 53°26' E 014°35'0 0.0
2014-Dec-16 12:33N 53°26' E 014°35'0 0.0
2014-Dec-16 11:33N 53°26' E 014°35'0 0.0
2014-Dec-16 10:33N 53°26' E 014°35'0 0.0
2014-Dec-16 09:33N 53°26' E 014°35'0 0.0
2014-Dec-16 08:32N 53°26' E 014°35'0 0.0
2014-Dec-16 07:32N 53°26' E 014°35'0 0.0
2014-Dec-16 06:32N 53°26' E 014°35'0 0.0
2014-Dec-16 05:24N 53°26' E 014°35'0 0.0
2014-Dec-16 04:33N 53°26' E 014°35'0 0.0
2014-Dec-16 03:33N 53°26' E 014°35'0 0.0
2014-Dec-16 02:33N 53°26' E 014°35'0 0.0
2014-Dec-16 01:22N 53°26' E 014°35'0 0.0
2014-Dec-15 23:29N 53°26' E 014°35'0 0.0
2014-Dec-15 22:32N 53°26' E 014°35'0 0.0
2014-Dec-15 21:32N 53°26' E 014°35'0 0.0
2014-Dec-15 20:32N 53°26' E 014°35'2 1.8
2014-Dec-15 19:33N 53°28' E 014°36'8 8.1
2014-Dec-15 18:33N 53°36' E 014°36'10 9.5
2014-Dec-15 17:33N 53°44' E 014°27'9 9.1
2014-Dec-15 16:33N 53°51' E 014°17'8 7.7
2014-Dec-15 15:33N 53°59' E 014°16'4 4.2
2014-Dec-15 14:33N 54°03' E 014°14'7 7.3
2014-Dec-15 13:33N 54°10' E 014°12'34 8.5
2014-Dec-15 09:32N 54°43' E 014°00'8 7.9
2014-Dec-15 08:34N 54°51' E 013°58'8 8.0
2014-Dec-15 07:34N 54°59' E 013°59'6 6.0
2014-Dec-15 06:34N 55°04' E 014°05'7 7.2
2014-Dec-15 05:33N 55°10' E 014°11'7 7.1
2014-Dec-15 04:33N 55°16' E 014°19'7 7.3
2014-Dec-15 03:34N 55°21' E 014°27'7 6.7
2014-Dec-15 02:33N 55°27' E 014°34'7 7.3
2014-Dec-15 01:33N 55°31' E 014°45'8 7.7
2014-Dec-15 00:33N 55°35' E 014°57'9 8.0
2014-Dec-14 23:24N 55°39' E 015°11'  
Track history (hours):
 
Tides and Currents Weather Stations Pressure Air Temp Water Temp Dewpoint Dewpoint Depression Visibility Wind Speed Wind Dir Waves Ship Positions

Lehmann Sound

Last reported at 2014-Dec-20 05:33 UTC. Time now 2014-Dec-20 05:53 UTC.
Position N 50°36' E 000°33'.

Length 90 m; draft 4.7 m.

Type: Cargo ship. MMSI: 305476000.

Date/timePositionNaut miles runAvg speedWind from/ knotsBaromVisibWave heightAir tempDewpointWater temp
2014-Dec-20 05:33N 50°36' E 000°33'9 8.9
2014-Dec-20 04:33N 50°41' E 000°44'1010.2
2014-Dec-20 03:33N 50°48' E 000°56'1110.6
2014-Dec-20 02:32N 50°55' E 001°09'1010.1
2014-Dec-20 01:33N 51°01' E 001°22'9 9.2
2014-Dec-20 00:33N 51°07' E 001°32'8 8.1
2014-Dec-19 23:33N 51°13' E 001°42'8 8.0
2014-Dec-19 22:33N 51°19' E 001°50'9 8.6
2014-Dec-19 21:34N 51°26' E 001°58'10 9.6
2014-Dec-19 20:32N 51°33' E 002°08'1010.3
2014-Dec-19 19:33N 51°41' E 002°20'93 8.3
2014-Dec-19 08:17N 52°54' E 003°54'6 8.4
2014-Dec-19 07:33N 52°58' E 004°02'8 8.3
2014-Dec-19 06:33N 53°03' E 004°12'19 6.1
2014-Dec-19 03:25N 53°19' E 004°31'5 5.5
2014-Dec-19 02:33N 53°23' E 004°34'5 5.3
2014-Dec-19 01:33N 53°28' E 004°38'5 4.8
2014-Dec-19 00:33N 53°29' E 004°46'5 5.0
2014-Dec-18 23:33N 53°31' E 004°53'6 5.8
2014-Dec-18 22:33N 53°33' E 005°02'7 6.9
2014-Dec-18 21:33N 53°36' E 005°13'7 7.0
2014-Dec-18 20:33N 53°38' E 005°24'7 6.6
2014-Dec-18 19:33N 53°40' E 005°35'7 7.0
2014-Dec-18 18:33N 53°43' E 005°46'7 7.0
2014-Dec-18 17:33N 53°45' E 005°57'56 8.7
2014-Dec-18 11:10N 53°60' E 007°28'710.3
2014-Dec-18 10:32N 54°01' E 007°39'1010.3
2014-Dec-18 09:33N 54°01' E 007°56'1010.3
2014-Dec-18 08:33N 54°00' E 008°14'10 9.9
2014-Dec-18 07:33N 53°59' E 008°30'8 8.3
2014-Dec-18 06:33N 53°54' E 008°42'8 8.0
2014-Dec-18 05:33N 53°51' E 008°54'9 9.1
2014-Dec-18 04:33N 53°54' E 009°09'2 2.1
2014-Dec-18 03:33N 53°55' E 009°11'8 8.4
2014-Dec-18 02:33N 54°03' E 009°18'9 8.0
2014-Dec-18 01:28N 54°10' E 009°26'8 8.4
2014-Dec-18 00:33N 54°14' E 009°37'8 7.8
2014-Dec-17 23:33N 54°20' E 009°45'8 7.9
2014-Dec-17 22:33N 54°21' E 009°58'5 5.3
2014-Dec-17 21:31N 54°22' E 010°08'0 0.0
2014-Dec-17 20:31N 54°22' E 010°08'0 0.0
2014-Dec-17 19:31N 54°22' E 010°08'0 0.2
2014-Dec-17 18:33N 54°22' E 010°08'1 1.5
2014-Dec-17 17:33N 54°22' E 010°10'7 6.9
2014-Dec-17 16:33N 54°29' E 010°16'9 9.1
2014-Dec-17 15:33N 54°33' E 010°29'38 8.7
2014-Dec-17 11:15N 54°29' E 011°34'7 9.6
2014-Dec-17 10:31N 54°26' E 011°45'10 9.4
2014-Dec-17 09:29N 54°26' E 012°01'8 8.1
2014-Dec-17 08:33N 54°30' E 012°12'65 5.9
2014-Dec-16 21:32N 54°19' E 014°03'9 9.4
2014-Dec-16 20:33N 54°12' E 014°12'1110.6
2014-Dec-16 19:33N 54°02' E 014°16'7 7.1
2014-Dec-16 18:33N 53°55' E 014°17'7 6.6
2014-Dec-16 17:33N 53°48' E 014°20'10 9.7
2014-Dec-16 16:33N 53°41' E 014°30'9 8.7
2014-Dec-16 15:33N 53°33' E 014°37'7 7.3
2014-Dec-16 14:33N 53°26' E 014°35'0 0.2
2014-Dec-16 13:33N 53°26' E 014°35'0 0.0
2014-Dec-16 12:33N 53°26' E 014°35'0 0.0
2014-Dec-16 11:33N 53°26' E 014°35'0 0.0
2014-Dec-16 10:33N 53°26' E 014°35'0 0.0
2014-Dec-16 09:33N 53°26' E 014°35'0 0.0
2014-Dec-16 08:32N 53°26' E 014°35'0 0.0
2014-Dec-16 07:32N 53°26' E 014°35'0 0.0
2014-Dec-16 06:32N 53°26' E 014°35'0 0.0
2014-Dec-16 05:24N 53°26' E 014°35'0 0.0
2014-Dec-16 04:33N 53°26' E 014°35'0 0.0
2014-Dec-16 03:33N 53°26' E 014°35'0 0.0
2014-Dec-16 02:33N 53°26' E 014°35'0 0.0
2014-Dec-16 01:22N 53°26' E 014°35'0 0.0
2014-Dec-15 23:29N 53°26' E 014°35'0 0.0
2014-Dec-15 22:32N 53°26' E 014°35'0 0.0
2014-Dec-15 21:32N 53°26' E 014°35'0 0.0
2014-Dec-15 20:32N 53°26' E 014°35'2 1.8
2014-Dec-15 19:33N 53°28' E 014°36'8 8.1
2014-Dec-15 18:33N 53°36' E 014°36'10 9.5
2014-Dec-15 17:33N 53°44' E 014°27'9 9.1
2014-Dec-15 16:33N 53°51' E 014°17'8 7.7
2014-Dec-15 15:33N 53°59' E 014°16'4 4.2
2014-Dec-15 14:33N 54°03' E 014°14'7 7.3
2014-Dec-15 13:33N 54°10' E 014°12'34 8.5
2014-Dec-15 09:32N 54°43' E 014°00'8 7.9
2014-Dec-15 08:34N 54°51' E 013°58'8 8.0
2014-Dec-15 07:34N 54°59' E 013°59'6 6.0
2014-Dec-15 06:34N 55°04' E 014°05'7 7.2
2014-Dec-15 05:33N 55°10' E 014°11'7 7.1
2014-Dec-15 04:33N 55°16' E 014°19'7 7.3
2014-Dec-15 03:34N 55°21' E 014°27'7 6.7
2014-Dec-15 02:33N 55°27' E 014°34'7 7.3
2014-Dec-15 01:33N 55°31' E 014°45'8 7.7
2014-Dec-15 00:33N 55°35' E 014°57'9 8.0
2014-Dec-14 23:24N 55°39' E 015°11'  

Dump ship's entire track history